Terminal Aerodrome Forecast
Issued by NWS

Home | Current Version | Previous Version | Text Only | Print | Product List | Glossary On
Versions: 1 2 3 4 5 6 7 8 9 10 11 12 13 14 15
000
FTUS42 KTAE 232327
TAFVLD
TAF
KVLD 232327Z 2400/2424 10009KT P6SM OVC050
     FM240900 07005KT 5SM BR OVC025
     FM241500 12011KT P6SM SCT025 BKN050=

USA.gov is the U.S. government's official web portal to all federal, state and local government web resources and services.